Time;durP1;ratioP1;P1;durP2;ratioP2;P2;SDS_P1;SDS_P2;PMS_P1;PMS_P2;Temp;Humidity;BMP_temperature;BMP_pressure;BME280_temperature;BME280_humidity;BME280_pressure;Samples;Min_cycle;Max_cycle;Signal;HPM_P1;HPM_P2
2022/11/09 00:00:40;;;;;;;4.13;1.73;;;14.10;99.90;;;;;;5117943;27;20023;-84
2022/11/09 00:03:06;;;;;;;3.13;1.27;;;14.10;99.90;;;;;;5113940;27;20094;-85
2022/11/09 00:05:32;;;;;;;5.75;2.00;;;14.10;99.90;;;;;;5116031;27;20012;-84
2022/11/09 00:07:57;;;;;;;3.47;1.25;;;14.10;99.90;;;;;;5098410;27;20415;-83
2022/11/09 00:10:23;;;;;;;5.55;1.67;;;14.10;99.90;;;;;;5116043;27;20120;-84
2022/11/09 00:12:48;;;;;;;4.72;1.70;;;14.10;99.90;;;;;;5114415;27;20080;-84
2022/11/09 00:15:14;;;;;;;6.82;1.48;;;14.00;99.90;;;;;;5096892;28;20016;-85
2022/11/09 00:17:40;;;;;;;4.18;1.58;;;14.00;99.90;;;;;;5095831;28;20030;-84
2022/11/09 00:20:06;;;;;;;3.03;1.27;;;14.10;99.90;;;;;;5112212;27;20477;-84
2022/11/09 00:22:31;;;;;;;4.95;1.70;;;14.00;99.90;;;;;;5095780;28;20051;-84
2022/11/09 00:24:57;;;;;;;3.50;1.33;;;14.00;99.90;;;;;;5117382;27;20046;-83
2022/11/09 00:27:22;;;;;;;5.57;1.70;;;14.00;99.90;;;;;;5127160;27;20054;-83
2022/11/09 00:29:48;;;;;;;5.60;1.92;;;13.90;99.90;;;;;;5129742;27;20034;-84
2022/11/09 00:32:13;;;;;;;3.20;1.38;;;13.90;99.90;;;;;;5118604;27;20051;-84
2022/11/09 00:34:39;;;;;;;3.53;1.25;;;13.90;99.90;;;;;;5097533;28;20020;-83
2022/11/09 00:37:05;;;;;;;5.80;1.90;;;13.90;99.90;;;;;;5105521;27;20545;-83
2022/11/09 00:39:30;;;;;;;4.40;1.15;;;13.90;99.90;;;;;;5117290;27;20043;-84
2022/11/09 00:41:56;;;;;;;4.40;1.30;;;14.00;99.90;;;;;;5094725;28;20024;-83
2022/11/09 00:44:21;;;;;;;5.32;1.52;;;14.00;99.90;;;;;;5098421;27;20026;-83
2022/11/09 00:46:47;;;;;;;5.32;1.70;;;14.00;99.90;;;;;;5124508;27;20112;-83
2022/11/09 00:49:13;;;;;;;3.15;1.50;;;14.00;99.90;;;;;;5125230;27;20495;-83
2022/11/09 00:51:38;;;;;;;3.67;1.40;;;14.00;99.90;;;;;;5123618;27;20024;-84
2022/11/09 00:54:06;;;;;;;6.57;1.27;;;14.00;99.90;;;;;;5106802;27;20472;-84
2022/11/09 00:56:32;;;;;;;4.38;1.38;;;14.00;99.90;;;;;;5116573;27;20746;-83
2022/11/09 00:58:58;;;;;;;3.80;1.13;;;14.00;99.90;;;;;;5093813;27;20066;-84
2022/11/09 01:01:23;;;;;;;4.53;1.17;;;14.00;99.90;;;;;;5106691;27;20034;-84
2022/11/09 01:03:49;;;;;;;4.78;1.13;;;14.00;99.90;;;;;;5111570;27;20015;-85
2022/11/09 01:06:20;;;;;;;3.63;1.20;;;14.00;99.90;;;;;;5118630;27;20087;-85
2022/11/09 01:08:47;;;;;;;3.35;1.20;;;14.00;99.90;;;;;;5103569;27;20047;-84
2022/11/09 01:11:13;;;;;;;2.40;1.00;;;14.00;99.90;;;;;;5120280;27;20137;-85
2022/11/09 01:13:39;;;;;;;2.50;1.10;;;14.00;99.90;;;;;;5116252;27;20016;-86
2022/11/09 01:16:08;;;;;;;4.38;1.50;;;14.00;99.90;;;;;;5102320;27;20030;-86
2022/11/09 01:18:34;;;;;;;5.53;1.45;;;14.00;99.90;;;;;;5125573;27;20028;-84
2022/11/09 01:21:01;;;;;;;3.17;1.20;;;14.00;99.90;;;;;;5109441;28;20416;-84
2022/11/09 01:23:27;;;;;;;4.28;1.75;;;13.90;99.90;;;;;;5119813;27;20020;-83
2022/11/09 01:26:00;;;;;;;4.53;1.40;;;13.80;99.90;;;;;;5093992;28;20024;-83
2022/11/09 01:28:26;;;;;;;4.53;1.70;;;13.60;99.90;;;;;;5119187;27;20541;-83
2022/11/09 01:30:52;;;;;;;5.32;1.70;;;13.50;99.90;;;;;;5108821;27;20019;-83
2022/11/09 01:33:18;;;;;;;5.93;2.13;;;13.30;99.90;;;;;;5116690;27;20069;-83
2022/11/09 01:35:44;;;;;;;5.20;1.50;;;13.20;99.90;;;;;;5112354;28;20035;-83
2022/11/09 01:38:09;;;;;;;4.82;1.52;;;13.20;99.90;;;;;;5102741;28;20032;-83
2022/11/09 01:40:38;;;;;;;3.53;1.30;;;13.20;99.90;;;;;;5094008;28;20023;-83
2022/11/09 01:43:18;;;;;;;3.88;1.30;;;13.20;99.90;;;;;;5112345;27;20023;-84
2022/11/09 01:45:49;;;;;;;5.88;1.48;;;13.20;99.90;;;;;;5097997;28;20370;-84
2022/11/09 01:48:19;;;;;;;4.28;1.50;;;13.20;99.90;;;;;;5083753;28;20064;-84
2022/11/09 01:50:54;;;;;;;2.47;0.73;;;13.20;99.90;;;;;;5100657;28;20019;-84
2022/11/09 01:53:26;;;;;;;3.42;1.20;;;13.20;99.90;;;;;;5118675;27;20024;-84
2022/11/09 01:55:55;;;;;;;3.78;1.50;;;13.10;99.90;;;;;;5090797;28;20019;-85
2022/11/09 01:58:29;;;;;;;3.75;1.67;;;13.20;99.90;;;;;;5093680;28;20051;-83
2022/11/09 02:00:57;;;;;;;4.93;1.30;;;13.20;99.90;;;;;;5094124;28;20378;-83
2022/11/09 02:03:26;;;;;;;3.50;1.63;;;13.10;99.90;;;;;;5094120;28;20039;-84
2022/11/09 02:05:52;;;;;;;3.45;1.73;;;13.20;99.90;;;;;;5111928;28;20412;-85
2022/11/09 02:08:19;;;;;;;3.83;1.30;;;13.10;99.90;;;;;;5112124;28;20509;-85
2022/11/09 02:11:08;;;;;;;4.80;1.77;;;13.20;99.90;;;;;;5112132;28;20051;-85
2022/11/09 02:13:37;;;;;;;6.05;1.80;;;13.20;99.90;;;;;;5093895;28;20019;-86
2022/11/09 02:16:03;;;;;;;4.25;1.40;;;13.20;99.90;;;;;;5112215;28;20024;-84
2022/11/09 02:18:30;;;;;;;6.00;1.50;;;13.30;99.90;;;;;;5093856;28;20023;-84
2022/11/09 02:20:57;;;;;;;7.57;1.73;;;13.30;99.90;;;;;;5102279;28;20070;-84
2022/11/09 02:23:25;;;;;;;6.82;1.65;;;13.30;99.90;;;;;;5116209;28;20096;-83
2022/11/09 02:25:56;;;;;;;2.83;1.52;;;13.30;99.90;;;;;;5111535;28;20046;-83
2022/11/09 02:28:22;;;;;;;3.83;1.40;;;13.30;99.90;;;;;;5111872;28;21366;-84
2022/11/09 02:30:52;;;;;;;6.10;1.90;;;13.30;99.90;;;;;;5111802;28;20553;-84
2022/11/09 02:33:18;;;;;;;4.43;1.55;;;13.30;99.90;;;;;;5111919;28;20019;-84
2022/11/09 02:35:43;;;;;;;3.40;1.50;;;13.30;99.90;;;;;;5111687;28;20094;-83
2022/11/09 02:38:11;;;;;;;4.70;1.75;;;13.30;99.90;;;;;;5114853;28;20030;-84
2022/11/09 02:40:39;;;;;;;4.65;1.38;;;13.40;99.90;;;;;;5117224;27;20032;-84
2022/11/09 02:43:07;;;;;;;5.32;1.80;;;13.40;99.90;;;;;;5100748;27;20528;-84
2022/11/09 02:45:33;;;;;;;5.03;1.77;;;13.40;99.90;;;;;;5131365;27;20023;-84
2022/11/09 02:47:58;;;;;;;3.30;1.50;;;13.40;99.90;;;;;;5124704;27;20479;-84
2022/11/09 02:50:24;;;;;;;4.53;1.83;;;13.40;99.90;;;;;;5120267;27;20020;-84
2022/11/09 02:52:50;;;;;;;5.30;1.60;;;13.40;99.90;;;;;;5124612;27;20434;-84
2022/11/09 02:55:15;;;;;;;4.90;1.50;;;13.50;99.90;;;;;;5104058;27;20458;-85
2022/11/09 02:57:41;;;;;;;5.90;1.95;;;13.40;99.90;;;;;;5105183;28;20019;-84
2022/11/09 03:00:07;;;;;;;5.95;1.60;;;13.40;99.90;;;;;;5120437;27;20473;-84
2022/11/09 03:02:33;;;;;;;2.97;1.52;;;13.40;99.90;;;;;;5122792;27;20016;-85
2022/11/09 03:04:59;;;;;;;3.13;1.40;;;13.40;99.90;;;;;;5104022;27;20019;-85
2022/11/09 03:07:25;;;;;;;3.60;1.55;;;13.40;99.90;;;;;;5120594;27;20060;-84
2022/11/09 03:09:52;;;;;;;4.57;1.45;;;13.30;99.90;;;;;;5103741;27;20051;-84
2022/11/09 03:12:27;;;;;;;5.22;1.50;;;13.30;99.90;;;;;;5099317;28;20062;-85
2022/11/09 03:14:53;;;;;;;4.30;1.42;;;13.30;99.90;;;;;;5122454;27;20059;-85
2022/11/09 03:17:19;;;;;;;5.68;1.70;;;13.30;99.90;;;;;;5101777;28;20012;-84
2022/11/09 03:19:45;;;;;;;3.25;1.25;;;13.30;99.90;;;;;;5120810;27;20076;-85
2022/11/09 03:22:10;;;;;;;4.88;1.48;;;13.30;99.90;;;;;;5096921;28;20161;-85
2022/11/09 03:24:36;;;;;;;5.93;1.50;;;13.30;99.90;;;;;;5109143;27;20056;-84
2022/11/09 03:27:02;;;;;;;4.88;1.50;;;13.30;99.90;;;;;;5120276;27;20019;-84
2022/11/09 03:29:27;;;;;;;4.43;1.55;;;13.30;99.90;;;;;;5096812;28;20020;-85
2022/11/09 03:31:53;;;;;;;5.60;1.38;;;13.30;99.90;;;;;;5101418;27;20027;-86
2022/11/09 03:34:18;;;;;;;3.28;1.20;;;13.30;99.90;;;;;;5105056;28;20059;-84
2022/11/09 03:36:44;;;;;;;3.80;1.33;;;13.40;99.90;;;;;;5096481;28;20384;-85
2022/11/09 03:39:10;;;;;;;4.47;1.73;;;13.30;99.90;;;;;;5095219;28;20504;-85
2022/11/09 03:41:35;;;;;;;5.53;1.40;;;13.30;99.90;;;;;;5113809;28;20204;-83
2022/11/09 03:44:01;;;;;;;4.03;1.30;;;13.30;99.90;;;;;;5096979;28;20484;-83
2022/11/09 03:46:26;;;;;;;3.53;1.33;;;13.30;99.90;;;;;;5096990;28;20480;-83
2022/11/09 03:48:52;;;;;;;5.80;1.40;;;13.30;99.90;;;;;;5113725;27;20027;-83
2022/11/09 03:51:18;;;;;;;5.35;1.80;;;13.30;99.90;;;;;;5097155;28;20423;-84
2022/11/09 03:53:43;;;;;;;4.13;1.20;;;13.30;99.90;;;;;;5096469;28;20023;-84
2022/11/09 03:56:09;;;;;;;4.03;1.48;;;13.30;99.90;;;;;;5096588;28;20426;-84
2022/11/09 03:58:35;;;;;;;2.80;1.30;;;13.20;99.90;;;;;;5096845;28;20085;-84
2022/11/09 04:01:00;;;;;;;3.92;1.20;;;13.20;99.90;;;;;;5114986;27;20334;-83
2022/11/09 04:03:26;;;;;;;5.97;1.60;;;13.20;99.90;;;;;;5114821;27;20058;-84
2022/11/09 04:05:51;;;;;;;5.38;1.30;;;13.10;99.90;;;;;;5096353;28;20383;-83
2022/11/09 04:08:17;;;;;;;2.67;1.02;;;13.20;99.90;;;;;;5114724;27;20063;-83
2022/11/09 04:10:43;;;;;;;5.55;1.45;;;13.20;99.90;;;;;;5115573;27;20028;-83
2022/11/09 04:13:08;;;;;;;5.13;1.10;;;13.10;99.90;;;;;;5096836;28;20568;-83
2022/11/09 04:15:34;;;;;;;3.78;1.27;;;13.10;99.90;;;;;;5114324;27;20019;-83
2022/11/09 04:18:01;;;;;;;3.85;1.10;;;13.00;99.90;;;;;;5095880;28;20068;-84
2022/11/09 04:20:29;;;;;;;3.53;0.98;;;12.90;99.90;;;;;;5115896;27;20031;-83
2022/11/09 04:22:56;;;;;;;3.00;0.82;;;12.80;99.90;;;;;;5112992;27;20054;-83
2022/11/09 04:25:22;;;;;;;3.95;1.30;;;12.80;99.90;;;;;;5095973;28;20023;-83
2022/11/09 04:27:52;;;;;;;2.72;0.90;;;12.70;99.90;;;;;;5095959;28;20024;-83
2022/11/09 04:30:18;;;;;;;2.55;0.80;;;12.70;99.90;;;;;;5095899;28;20015;-84
2022/11/09 04:32:43;;;;;;;3.75;1.40;;;12.70;99.90;;;;;;5095419;28;20020;-84
2022/11/09 04:35:09;;;;;;;2.95;0.82;;;12.60;99.90;;;;;;5113925;27;20091;-83
2022/11/09 04:37:34;;;;;;;3.72;1.27;;;12.60;99.90;;;;;;5103170;28;20038;-84
2022/11/09 04:40:00;;;;;;;3.58;1.00;;;12.60;99.90;;;;;;5102911;28;20031;-84
2022/11/09 04:42:25;;;;;;;4.97;1.00;;;12.50;99.90;;;;;;5114207;28;20419;-84
2022/11/09 04:44:51;;;;;;;3.65;1.00;;;12.50;99.90;;;;;;5113558;27;20110;-84
2022/11/09 04:47:16;;;;;;;3.85;1.17;;;12.40;99.90;;;;;;5095068;28;20496;-84
2022/11/09 04:49:42;;;;;;;6.18;1.45;;;12.40;99.90;;;;;;5132558;27;20022;-84
2022/11/09 04:52:08;;;;;;;4.68;1.17;;;12.40;99.90;;;;;;5121434;27;20020;-84
2022/11/09 04:54:33;;;;;;;5.50;1.25;;;12.40;99.90;;;;;;5113814;27;20365;-85
2022/11/09 04:56:59;;;;;;;5.47;1.17;;;12.30;99.90;;;;;;5096561;28;20024;-85
2022/11/09 04:59:24;;;;;;;5.03;0.95;;;12.40;99.90;;;;;;5131513;27;20059;-84
2022/11/09 05:01:50;;;;;;;3.10;1.20;;;12.40;99.90;;;;;;5115066;27;20019;-84
2022/11/09 05:04:15;;;;;;;3.38;0.70;;;12.40;99.90;;;;;;5106813;27;20023;-85
2022/11/09 05:06:41;;;;;;;3.55;0.90;;;12.40;99.90;;;;;;5133246;27;20532;-84
2022/11/09 05:09:07;;;;;;;2.72;0.75;;;12.40;99.90;;;;;;5100053;27;20043;-84
2022/11/09 05:11:34;;;;;;;4.13;1.08;;;12.40;99.90;;;;;;5109789;28;20050;-85
2022/11/09 05:14:01;;;;;;;3.08;1.10;;;12.40;99.90;;;;;;5130769;27;20025;-85
2022/11/09 05:16:29;;;;;;;3.35;0.90;;;12.40;99.90;;;;;;5114136;27;20016;-85
2022/11/09 05:18:55;;;;;;;3.97;0.85;;;12.40;99.90;;;;;;5126840;27;20550;-84
2022/11/09 05:21:20;;;;;;;3.33;1.20;;;12.30;99.90;;;;;;5106570;27;20023;-85
2022/11/09 05:23:59;;;;;;;4.22;1.08;;;12.30;99.90;;;;;;5108302;27;20027;-85
2022/11/09 05:26:32;;;;;;;3.15;0.93;;;12.30;99.90;;;;;;5132027;27;20011;-84
2022/11/09 05:29:00;;;;;;;5.47;1.65;;;12.30;99.90;;;;;;5106371;28;20043;-84
2022/11/09 05:31:27;;;;;;;3.78;1.17;;;12.30;99.90;;;;;;5120826;27;20498;-85
2022/11/09 05:33:54;;;;;;;3.63;0.90;;;12.20;99.90;;;;;;5105285;28;20012;-87
2022/11/09 05:36:20;;;;;;;6.53;1.30;;;12.20;99.90;;;;;;5121077;27;20024;-85
2022/11/09 05:38:46;;;;;;;6.50;1.13;;;12.10;99.90;;;;;;5098639;27;20126;-84
2022/11/09 05:41:12;;;;;;;4.45;1.30;;;12.10;99.90;;;;;;5106961;27;20443;-84
2022/11/09 05:43:38;;;;;;;4.38;1.20;;;12.10;99.90;;;;;;5111173;28;20063;-85
2022/11/09 05:46:04;;;;;;;4.50;1.20;;;12.10;99.90;;;;;;5108662;27;20031;-85
2022/11/09 05:48:29;;;;;;;2.40;1.00;;;12.00;99.90;;;;;;5104474;27;20015;-88
2022/11/09 05:50:58;;;;;;;5.13;1.10;;;12.00;99.90;;;;;;5098868;27;20027;-85
2022/11/09 05:53:27;;;;;;;3.05;0.90;;;12.00;99.90;;;;;;5095013;28;20118;-85
2022/11/09 05:55:52;;;;;;;2.30;0.75;;;11.90;99.90;;;;;;5107875;28;20024;-85
2022/11/09 05:58:18;;;;;;;3.25;1.17;;;12.00;99.90;;;;;;5094852;28;20469;-84
2022/11/09 06:00:44;;;;;;;3.42;0.77;;;11.90;99.90;;;;;;5096628;28;20039;-84
2022/11/09 06:03:10;;;;;;;3.47;1.10;;;11.80;99.90;;;;;;5107111;28;20028;-85
2022/11/09 06:05:38;;;;;;;4.75;0.85;;;11.80;99.90;;;;;;5088117;28;20028;-85
2022/11/09 06:08:06;;;;;;;5.28;0.82;;;11.80;99.90;;;;;;5091607;28;20031;-84
2022/11/09 06:10:32;;;;;;;5.82;1.17;;;11.80;99.90;;;;;;5091378;28;20565;-84
2022/11/09 06:12:57;;;;;;;4.80;1.10;;;11.80;99.90;;;;;;5109890;28;20031;-85
2022/11/09 06:15:23;;;;;;;3.42;0.77;;;11.70;99.90;;;;;;5128591;27;20015;-84
2022/11/09 06:17:53;;;;;;;2.13;0.70;;;11.80;99.90;;;;;;5136970;27;20064;-85
2022/11/09 06:20:18;;;;;;;4.35;1.00;;;11.70;99.90;;;;;;5105192;27;20035;-85
2022/11/09 06:22:44;;;;;;;4.97;1.17;;;11.70;99.90;;;;;;5114827;27;20109;-85
2022/11/09 06:25:10;;;;;;;3.97;1.23;;;11.70;99.90;;;;;;5114354;27;20116;-85
2022/11/09 06:27:35;;;;;;;6.95;1.35;;;11.70;99.90;;;;;;5126753;27;20422;-85
2022/11/09 06:30:01;;;;;;;5.97;1.90;;;11.70;99.90;;;;;;5113923;27;20532;-86
2022/11/09 06:32:27;;;;;;;4.75;0.90;;;11.60;99.90;;;;;;5111641;27;20129;-86
2022/11/09 06:34:53;;;;;;;7.63;1.35;;;11.70;99.90;;;;;;5114339;28;20027;-83
2022/11/09 06:37:18;;;;;;;6.07;1.35;;;11.70;99.90;;;;;;5107807;27;20026;-83
2022/11/09 06:39:46;;;;;;;3.40;1.02;;;11.70;99.90;;;;;;5110565;27;20388;-84
2022/11/09 06:42:11;;;;;;;9.52;1.27;;;11.70;99.90;;;;;;5136513;27;20023;-83
2022/11/09 06:44:37;;;;;;;5.93;1.27;;;11.70;99.90;;;;;;5103731;27;20495;-83
2022/11/09 06:47:03;;;;;;;9.40;1.60;;;11.70;99.90;;;;;;5114113;27;20020;-83
2022/11/09 06:49:28;;;;;;;9.75;1.98;;;11.70;99.90;;;;;;5104196;27;20019;-83
2022/11/09 06:51:54;;;;;;;4.07;1.15;;;11.70;99.90;;;;;;5107399;28;20494;-84
2022/11/09 06:54:19;;;;;;;5.85;1.38;;;11.70;99.90;;;;;;5130465;27;20024;-83
2022/11/09 06:56:45;;;;;;;3.35;0.90;;;11.70;99.90;;;;;;5110023;27;20102;-84
2022/11/09 06:59:11;;;;;;;4.47;1.17;;;11.70;99.90;;;;;;5115183;27;20485;-84
2022/11/09 07:01:36;;;;;;;7.35;1.50;;;11.70;99.90;;;;;;5135325;27;20023;-83
2022/11/09 07:04:02;;;;;;;8.02;1.70;;;11.70;99.90;;;;;;5108553;27;20019;-84
2022/11/09 07:06:28;;;;;;;4.25;1.30;;;11.70;99.90;;;;;;5134900;27;20019;-85
2022/11/09 07:08:56;;;;;;;5.10;1.50;;;11.70;99.90;;;;;;5132999;27;20402;-84
2022/11/09 07:11:22;;;;;;;7.53;1.30;;;11.70;99.90;;;;;;5111868;28;20034;-84
2022/11/09 07:13:48;;;;;;;6.55;1.55;;;11.70;99.90;;;;;;5111087;27;20024;-85
2022/11/09 07:16:16;;;;;;;7.75;1.30;;;11.70;99.90;;;;;;5115608;27;20077;-83
2022/11/09 07:18:44;;;;;;;4.90;1.25;;;11.70;99.90;;;;;;5113339;27;20564;-84
2022/11/09 07:21:10;;;;;;;5.32;1.48;;;11.70;99.90;;;;;;5097318;28;20077;-85
2022/11/09 07:23:36;;;;;;;6.20;1.73;;;11.70;99.90;;;;;;5115557;27;20019;-84
2022/11/09 07:26:01;;;;;;;5.93;1.20;;;11.80;99.90;;;;;;5114372;28;20115;-83
2022/11/09 07:28:27;;;;;;;5.13;1.10;;;11.70;99.90;;;;;;5115212;27;20098;-85
2022/11/09 07:30:53;;;;;;;4.53;1.15;;;11.80;99.90;;;;;;5097008;28;20024;-85
2022/11/09 07:33:19;;;;;;;6.07;1.33;;;11.80;99.90;;;;;;5097519;28;20130;-85
2022/11/09 07:35:45;;;;;;;3.20;1.20;;;11.80;99.90;;;;;;5097662;28;20061;-85
2022/11/09 07:38:11;;;;;;;5.38;1.30;;;11.80;99.90;;;;;;5116079;27;20035;-83
2022/11/09 07:40:38;;;;;;;4.07;1.13;;;11.90;99.90;;;;;;5109342;27;20469;-85
2022/11/09 07:43:05;;;;;;;6.00;1.40;;;11.90;99.90;;;;;;5097636;28;20019;-86
2022/11/09 07:45:32;;;;;;;5.75;1.35;;;11.90;99.90;;;;;;5097027;28;20436;-86
2022/11/09 07:48:00;;;;;;;5.97;1.42;;;11.90;99.90;;;;;;5109317;27;20020;-85
2022/11/09 07:50:27;;;;;;;4.50;1.20;;;11.90;99.90;;;;;;5113878;27;20019;-85
2022/11/09 07:52:57;;;;;;;4.88;1.20;;;12.00;99.90;;;;;;5115849;27;20524;-84
2022/11/09 07:55:24;;;;;;;7.38;1.73;;;12.00;99.90;;;;;;5097048;28;20015;-84
2022/11/09 07:57:58;;;;;;;7.35;1.88;;;12.10;99.90;;;;;;5097663;28;20485;-84
2022/11/09 08:00:25;;;;;;;7.93;1.58;;;12.10;99.90;;;;;;5115824;27;20456;-85
2022/11/09 08:02:50;;;;;;;8.50;2.00;;;12.20;99.90;;;;;;5116001;27;20043;-84
2022/11/09 08:05:16;;;;;;;11.73;2.13;;;12.20;99.90;;;;;;5097136;27;20104;-84
2022/11/09 08:07:42;;;;;;;9.77;1.92;;;12.30;99.90;;;;;;5097674;28;20018;-84
2022/11/09 08:10:08;;;;;;;6.85;1.48;;;12.30;99.90;;;;;;5097782;28;20047;-85
2022/11/09 08:12:33;;;;;;;8.55;1.85;;;12.40;99.90;;;;;;5096480;28;20054;-88
2022/11/09 08:14:59;;;;;;;4.50;1.55;;;12.40;99.90;;;;;;5114739;27;20059;-84
2022/11/09 08:17:24;;;;;;;6.05;2.38;;;12.40;99.90;;;;;;5116090;27;20016;-85
2022/11/09 08:19:50;;;;;;;4.68;1.60;;;12.40;99.90;;;;;;5116329;27;20066;-84
2022/11/09 08:22:16;;;;;;;8.18;1.35;;;12.50;99.90;;;;;;5122219;27;20019;-84
2022/11/09 08:24:41;;;;;;;5.05;1.35;;;12.60;99.90;;;;;;5128307;27;20065;-83
2022/11/09 08:27:07;;;;;;;8.48;1.55;;;12.70;99.90;;;;;;5109634;28;20015;-84
2022/11/09 08:29:32;;;;;;;7.05;1.73;;;12.80;99.90;;;;;;5108710;27;20388;-84
2022/11/09 08:31:58;;;;;;;9.57;2.53;;;12.80;99.90;;;;;;5108681;27;20027;-86
2022/11/09 08:34:24;;;;;;;6.53;1.85;;;12.90;99.90;;;;;;5115358;27;20536;-84
2022/11/09 08:36:50;;;;;;;6.68;1.58;;;12.90;99.90;;;;;;5120447;27;20097;-85
2022/11/09 08:39:16;;;;;;;5.25;1.38;;;13.00;99.90;;;;;;5121254;27;20378;-86
2022/11/09 08:41:42;;;;;;;4.78;1.50;;;13.10;99.90;;;;;;5106812;28;20027;-87
2022/11/09 08:44:07;;;;;;;6.43;1.80;;;13.20;99.90;;;;;;5115544;27;20024;-88
2022/11/09 08:46:33;;;;;;;6.93;1.80;;;13.30;99.90;;;;;;5114748;28;20481;-89
2022/11/09 08:48:58;;;;;;;4.97;1.45;;;13.40;99.90;;;;;;5107405;27;20054;-86
2022/11/09 08:51:24;;;;;;;5.85;1.63;;;13.90;99.90;;;;;;5109962;27;20457;-88
2022/11/09 08:53:50;;;;;;;5.20;1.80;;;15.10;99.90;;;;;;5114989;27;20023;-88
2022/11/09 08:56:17;;;;;;;7.60;1.80;;;16.30;99.90;;;;;;5121495;27;20007;-85
2022/11/09 08:58:44;;;;;;;8.18;2.05;;;17.10;99.90;;;;;;5123765;27;20110;-84
2022/11/09 09:01:10;;;;;;;4.72;1.60;;;17.60;99.90;;;;;;5100267;28;20034;-86
2022/11/09 09:03:36;;;;;;;6.50;1.67;;;18.30;99.90;;;;;;5099584;27;20094;-86
2022/11/09 09:06:06;;;;;;;6.95;1.65;;;18.60;99.90;;;;;;5100742;28;20088;-86
2022/11/09 09:08:32;;;;;;;5.63;1.50;;;18.80;99.90;;;;;;5096243;28;20048;-83
2022/11/09 09:11:02;;;;;;;6.13;1.70;;;19.20;99.90;;;;;;5078943;28;20466;-85
2022/11/09 09:13:27;;;;;;;4.93;1.20;;;19.80;99.90;;;;;;5081966;28;20024;-85
2022/11/09 09:15:53;;;;;;;4.35;1.38;;;20.20;99.90;;;;;;5089540;28;20009;-84
2022/11/09 09:18:19;;;;;;;6.53;1.75;;;20.40;99.90;;;;;;5091781;28;20036;-84
2022/11/09 09:20:44;;;;;;;7.60;1.70;;;19.60;99.90;;;;;;5078434;28;20032;-85
2022/11/09 09:23:11;;;;;;;6.38;1.20;;;18.60;99.90;;;;;;5077432;28;20063;-84
2022/11/09 09:25:37;;;;;;;8.98;1.75;;;17.60;99.90;;;;;;5071419;28;20378;-84
2022/11/09 09:28:02;;;;;;;6.97;1.70;;;17.40;99.90;;;;;;5072365;28;20021;-84
2022/11/09 09:30:28;;;;;;;5.15;1.50;;;17.90;99.90;;;;;;5087889;28;20016;-85
2022/11/09 09:32:59;;;;;;;6.65;1.63;;;18.20;99.90;;;;;;5070945;28;20082;-84
2022/11/09 09:35:24;;;;;;;5.22;1.33;;;18.40;99.90;;;;;;5087820;28;20042;-83
2022/11/09 09:37:50;;;;;;;7.15;1.67;;;18.10;99.90;;;;;;5072452;28;20068;-83
2022/11/09 09:40:42;;;;;;;4.63;1.45;;;17.90;99.90;;;;;;5070900;28;20032;-85
2022/11/09 09:43:20;;;;;;;6.00;1.75;;;18.10;99.90;;;;;;5072155;28;20134;-84
2022/11/09 09:45:51;;;;;;;7.90;1.88;;;18.20;99.90;;;;;;5072497;28;20124;-84
2022/11/09 09:48:31;;;;;;;5.35;1.52;;;18.10;99.90;;;;;;5071554;28;20021;-84
2022/11/09 09:51:08;;;;;;;5.80;1.52;;;18.00;99.90;;;;;;5088396;28;20368;-85
2022/11/09 09:53:48;;;;;;;8.07;1.65;;;18.50;99.90;;;;;;5071947;28;20028;-84
2022/11/09 09:56:22;;;;;;;7.18;1.52;;;18.80;99.90;;;;;;5070950;28;20012;-85
2022/11/09 09:58:54;;;;;;;8.43;1.90;;;18.90;99.90;;;;;;5070419;28;20466;-85
2022/11/09 10:01:26;;;;;;;6.50;1.70;;;19.10;99.90;;;;;;5073669;28;20474;-84
2022/11/09 10:03:51;;;;;;;5.97;1.42;;;19.00;99.90;;;;;;5073580;28;20024;-85
2022/11/09 10:06:57;;;;;;;7.45;1.80;;;18.90;99.90;;;;;;5072491;28;20394;-86
2022/11/09 10:09:35;;;;;;;7.93;1.35;;;18.50;99.90;;;;;;5108719;28;20261;-84
2022/11/09 10:12:48;;;;;;;8.07;1.80;;;18.40;99.90;;;;;;5074909;28;20201;-83
2022/11/09 10:15:53;;;;;;;5.93;1.55;;;18.40;99.90;;;;;;5036373;28;20029;-84
2022/11/09 10:18:43;;;;;;;5.88;1.45;;;18.80;99.90;;;;;;5047065;28;20025;-83
2022/11/09 10:21:51;;;;;;;9.13;2.10;;;18.40;99.90;;;;;;5057850;28;20074;-82
2022/11/09 10:24:17;;;;;;;4.68;1.35;;;19.20;99.90;;;;;;5030037;28;20029;-84
2022/11/09 10:26:50;;;;;;;6.60;1.35;;;19.70;99.90;;;;;;5046373;28;20098;-83
2022/11/09 10:29:23;;;;;;;;;;;20.10;99.90;;;;;;5046372;28;20099;-83
2022/11/09 10:32:15;;;;;;;8.20;1.50;;;19.80;99.90;;;;;;5036198;28;19921;-83
2022/11/09 10:34:49;;;;;;;7.88;1.65;;;18.90;99.90;;;;;;5037719;28;20428;-82
2022/11/09 10:37:20;;;;;;;9.43;1.83;;;18.20;99.90;;;;;;5060857;28;20389;-83
2022/11/09 10:40:00;;;;;;;4.82;1.20;;;17.50;99.90;;;;;;5044216;28;20074;-82
2022/11/09 10:42:31;;;;;;;5.72;1.27;;;17.50;99.90;;;;;;5042094;28;20032;-82
2022/11/09 10:45:06;;;;;;;4.85;1.50;;;17.30;99.90;;;;;;5037307;28;20112;-82
2022/11/09 10:47:52;;;;;;;5.65;1.33;;;17.30;99.90;;;;;;5043731;28;20138;-82
2022/11/09 10:50:33;;;;;;;6.82;1.33;;;17.60;99.90;;;;;;5044036;28;20515;-82
2022/11/09 10:53:20;;;;;;;5.80;1.42;;;17.50;99.90;;;;;;5047002;28;20025;-83
2022/11/09 10:56:03;;;;;;;6.90;1.67;;;17.50;99.90;;;;;;5045537;28;20039;-83
2022/11/09 10:58:37;;;;;;;5.32;1.40;;;17.30;99.90;;;;;;5042493;28;20095;-82
2022/11/09 11:01:18;;;;;;;6.53;1.20;;;17.00;99.90;;;;;;5035297;28;20029;-83
2022/11/09 11:03:47;;;;;;;6.30;1.33;;;17.00;99.90;;;;;;5060207;28;20096;-81
2022/11/09 11:06:30;;;;;;;7.25;1.58;;;17.40;99.90;;;;;;5045566;28;20021;-81
2022/11/09 11:09:10;;;;;;;4.68;1.27;;;17.40;99.90;;;;;;5047210;28;20193;-83
2022/11/09 11:11:38;;;;;;;5.90;1.50;;;17.00;99.90;;;;;;5052137;28;20049;-83
2022/11/09 11:14:30;;;;;;;7.47;1.27;;;16.60;99.90;;;;;;5056017;28;20052;-83
2022/11/09 11:17:04;;;;;;;8.63;2.08;;;16.20;99.90;;;;;;5064104;28;20049;-83
2022/11/09 11:19:40;;;;;;;7.90;1.65;;;15.90;99.90;;;;;;5060359;28;20013;-82
2022/11/09 11:22:17;;;;;;;5.70;1.27;;;15.80;99.90;;;;;;5048077;28;20033;-82
2022/11/09 11:25:24;;;;;;;5.72;1.55;;;15.80;99.90;;;;;;5042060;28;20057;-82
2022/11/09 11:27:55;;;;;;;6.70;1.35;;;15.60;99.90;;;;;;5038470;28;20032;-83
2022/11/09 11:30:33;;;;;;;5.22;1.30;;;15.50;99.90;;;;;;5026074;28;20037;-82
2022/11/09 11:33:20;;;;;;;4.90;1.10;;;15.40;99.90;;;;;;5044348;28;20067;-83
2022/11/09 11:35:58;;;;;;;4.40;1.20;;;15.50;99.90;;;;;;5035519;28;20055;-83
2022/11/09 11:38:48;;;;;;;8.18;1.38;;;15.70;99.90;;;;;;5042436;28;20017;-84
2022/11/09 11:42:19;;;;;;;5.22;1.20;;;16.80;99.90;;;;;;5060113;28;20038;-83
2022/11/09 11:44:54;;;;;;;7.05;1.42;;;17.30;99.90;;;;;;4977182;28;20019;-83
2022/11/09 11:47:56;;;;;;;4.65;1.10;;;16.90;99.90;;;;;;4990423;28;20557;-83
2022/11/09 11:50:58;;;;;;;4.18;1.27;;;17.00;99.90;;;;;;5025594;28;20538;-83
2022/11/09 11:54:17;;;;;;;7.20;1.80;;;17.20;99.90;;;;;;5035068;28;20037;-82
2022/11/09 11:56:58;;;;;;;7.10;1.27;;;16.90;99.90;;;;;;5019479;28;20393;-84
2022/11/09 11:59:34;;;;;;;5.43;1.30;;;16.60;99.90;;;;;;5048084;28;20021;-83
2022/11/09 12:02:51;;;;;;;;;;;;;;;;;;;;;
2022/11/09 12:05:40;;;;;;;3.95;1.00;;;16.20;99.90;;;;;;5048948;28;20020;-83
2022/11/09 12:08:44;;;;;;;5.30;1.23;;;16.10;99.90;;;;;;5050682;28;20394;-82
2022/11/09 12:11:43;;;;;;;5.90;1.33;;;16.00;99.90;;;;;;5049067;28;20070;-82
2022/11/09 12:14:15;;;;;;;4.47;1.25;;;15.80;99.90;;;;;;5048831;28;20041;-83
2022/11/09 12:17:14;;;;;;;6.30;1.42;;;15.90;99.90;;;;;;5031912;28;20036;-82
2022/11/09 12:20:13;;;;;;;5.70;1.52;;;16.00;99.90;;;;;;5040899;28;20468;-83
2022/11/09 12:23:05;;;;;;;4.65;1.38;;;16.00;99.90;;;;;;5043558;28;20167;-84
2022/11/09 12:25:56;;;;;;;7.10;1.35;;;16.10;99.90;;;;;;5037063;28;20064;-85
2022/11/09 12:29:07;;;;;;;6.15;1.50;;;16.20;99.90;;;;;;5047827;28;20021;-83
2022/11/09 12:32:07;;;;;;;5.22;1.00;;;16.70;99.90;;;;;;5036900;28;20042;-83
2022/11/09 12:35:03;;;;;;;6.30;1.27;;;17.40;99.90;;;;;;5035106;28;20059;-84
2022/11/09 12:37:36;;;;;;;4.75;1.10;;;17.50;99.90;;;;;;5035998;28;20103;-84
2022/11/09 12:40:35;;;;;;;5.57;1.42;;;17.30;99.90;;;;;;5035665;28;20029;-84
2022/11/09 12:43:09;;;;;;;6.35;1.33;;;17.00;99.90;;;;;;4984015;28;20648;-91
2022/11/09 12:45:38;;;;;;;5.25;1.20;;;16.70;99.90;;;;;;4967508;28;20126;-92
2022/11/09 12:48:28;;;;;;;5.30;1.08;;;16.40;99.90;;;;;;5003450;28;20037;-85
2022/11/09 12:50:57;;;;;;;3.72;1.17;;;16.20;99.90;;;;;;5034659;28;20143;-83
2022/11/09 12:53:35;;;;;;;4.68;1.13;;;16.10;99.90;;;;;;5044732;28;20058;-83
2022/11/09 12:56:16;;;;;;;7.28;1.40;;;16.20;99.90;;;;;;5047206;28;20033;-84
2022/11/09 12:58:42;;;;;;;5.00;1.15;;;17.10;99.90;;;;;;5040052;28;20065;-83
2022/11/09 13:01:31;;;;;;;4.18;0.88;;;18.10;99.90;;;;;;5030757;28;20030;-84
2022/11/09 13:04:01;;;;;;;3.22;0.82;;;19.00;99.90;;;;;;5010391;28;20044;-82
2022/11/09 13:06:35;;;;;;;7.03;1.20;;;19.70;99.90;;;;;;5043193;28;20113;-82